KFLL

Fort Lauderdale / Hollywood International Airport

Fort Lauderdale, Florida, USA
KFLL 251720Z 2518/2624 30008KT P6SM FEW250 FM252000 17010KT P6SM SKC FM260100 29005KT P6SM SKC FM261400 27008KT P6SM SKC FM262100 17008KT P6SM SKC
Issued Valid From Valid To
Apr-25 @ 17:20 UTC
(60 minutes ago)
Apr-25 @ 18:00 UTC
(20 minutes ago)
Apr-27 @ 00:00 UTC
(-1 days ago)
Apr-25 @ 18:00 to Apr-25 @ 20:00
KFLL 251720Z 2518/2624 30008KT P6SM FEW250
Wind Visibility Clouds
300° at 8 knots Greater than 6 miles
  • Few at 25,000' AGL
From Apr-25 @ 20:00 to Apr-26 @ 01:00
FM252000 17010KT P6SM SKC
Wind Visibility Clouds
170° at 10 knots Greater than 6 miles
  • Clear skies
From Apr-26 @ 01:00 to Apr-26 @ 14:00
FM260100 29005KT P6SM SKC
Wind Visibility Clouds
290° at 5 knots Greater than 6 miles
  • Clear skies
From Apr-26 @ 14:00 to Apr-26 @ 21:00
FM261400 27008KT P6SM SKC
Wind Visibility Clouds
270° at 8 knots Greater than 6 miles
  • Clear skies
From Apr-26 @ 21:00 to Apr-27 @ 00:00
FM262100 17008KT P6SM SKC
Wind Visibility Clouds
170° at 8 knots Greater than 6 miles
  • Clear skies
KFLL 251720Z 2518/2624 30008KT P6SM FEW250 FM252000 17010KT P6SM SKC FM260100 29005KT P6SM SKC FM261400 27008KT P6SM SKC FM262100 17008KT P6SM SKC
Issued Apr-25 @ 17:20 UTC
(60 minutes ago)
Valid From Apr-25 @ 18:00 UTC
(20 minutes ago)
Valid To Apr-27 @ 00:00 UTC
(-1 days ago)
Apr-25 @ 18:00 - Apr-25 @ 20:00
Wind Visibility
300° at 8 knots Greater than 6 miles
Clouds
  • Few at 25,000' AGL
From Apr-25 @ 20:00 - Apr-26 @ 01:00
Wind Visibility
170° at 10 knots Greater than 6 miles
Clouds
  • Clear skies
From Apr-26 @ 01:00 - Apr-26 @ 14:00
Wind Visibility
290° at 5 knots Greater than 6 miles
Clouds
  • Clear skies
From Apr-26 @ 14:00 - Apr-26 @ 21:00
Wind Visibility
270° at 8 knots Greater than 6 miles
Clouds
  • Clear skies
From Apr-26 @ 21:00 - Apr-27 @ 00:00
Wind Visibility
170° at 8 knots Greater than 6 miles
Clouds
  • Clear skies